Impacts TAF Board INFO
FOR SITUATIONAL AWARENESS. NOT TO BE USED FOR FLIGHT PLANNING PURPOSES.
IDs:

KDFW - Dallas-Ft Worth Intl, TX, US

Issued at 1722 UTC 24 Apr 2018
Updated at 2048 UTC 24 Apr 2018
Potential Impact None Slight Moderate High
Time<<25/09Z 25/10Z 25/11Z 25/12Z 25/13Z 25/14Z 25/15Z 25/16Z 25/17Z 25/18Z 25/19Z 25/20Z 25/21Z>>
Type PRVL PRVL PRVL PRVL PRVL PRVL PRVL PRVL PRVL PRVL PRVL PRVL PRVL
VIS >6 >6 >6 >6 >6 >6 >6 >6 >6 >6 >6 >6 >6
CIG 50 50 50 50 50 50 15 15 15 15 15 15 15
Cover OVC OVC OVC OVC OVC OVC OVC OVC OVC OVC OVC OVC OVC
FltCat VFR VFR VFR VFR VFR VFR MVFR MVFR MVFR MVFR MVFR MVFR MVFR
WX VCSH -- -- -- -- -- -- -- -- -- VCSH VCSH VCSH
WDir 50 20 20 20 20 20 340 340 340 340 340 340 340
WSpd 4 4 4 4 4 4 15 15 15 15 15 15 15
WGst -- -- -- -- -- -- -- -- -- -- -- -- --

Raw TAF
KDFW 241722Z 2418/2524 07008KT P6SM FEW060 SCT150
  FM250700 05004KT P6SM VCSH BKN050 BKN120 OVC250
  FM251000 02004KT P6SM BKN050 BKN120 OVC250
  FM251500 34015KT P6SM BKN015 BKN050 OVC120
  FM251900 34015KT P6SM VCSH BKN015 OVC050


METAR Board
Radar Display
Forecast Discussion

FOR SITUATIONAL AWARENESS. NOT TO BE USED FOR FLIGHT PLANNING PURPOSES.